Time;durP1;ratioP1;P1;durP2;ratioP2;P2;SDS_P1;SDS_P2;PMS_P1;PMS_P2;Temp;Humidity;BMP_temperature;BMP_pressure;BME280_temperature;BME280_humidity;BME280_pressure;Samples;Min_cycle;Max_cycle;Signal;HPM_P1;HPM_P2
2022/12/13 00:01:48;;;;;;;10.05;5.75;;;;;;;-0.64;72.67;99432.19;4428956;32;34245;-71
2022/12/13 00:04:17;;;;;;;1.15;0.70;;;;;;;-0.58;72.52;99443.97;4450311;32;33908;-69
2022/12/13 00:06:45;;;;;;;18.27;11.18;;;;;;;-0.75;73.17;99443.31;4429149;32;35104;-69
2022/12/13 00:09:17;;;;;;;14.05;8.95;;;;;;;-0.37;71.66;99445.03;4438963;32;33817;-70
2022/12/13 00:11:44;;;;;;;6.35;3.70;;;;;;;-0.58;71.74;99448.44;4438695;32;33053;-71
2022/12/13 00:14:13;;;;;;;0.50;0.50;;;;;;;-0.92;72.28;99455.16;4438723;32;33853;-72
2022/12/13 00:16:44;;;;;;;7.07;4.75;;;;;;;-0.80;72.91;99448.34;4453133;32;34311;-70
2022/12/13 00:19:13;;;;;;;2.53;2.28;;;;;;;-0.90;73.38;99445.97;4439810;32;33957;-72
2022/12/13 00:21:41;;;;;;;18.73;11.02;;;;;;;-0.56;71.55;99449.09;4439549;32;34440;-70
2022/12/13 00:24:08;;;;;;;19.60;11.52;;;;;;;-0.77;72.15;99442.69;4453658;32;33866;-74
2022/12/13 00:26:37;;;;;;;19.27;11.73;;;;;;;-0.55;72.13;99437.44;4440288;32;34300;-71
2022/12/13 00:29:06;;;;;;;2.03;1.85;;;;;;;-0.44;71.00;99447.63;4454206;32;34488;-74
2022/12/13 00:31:34;;;;;;;9.77;6.15;;;;;;;-0.47;71.23;99445.34;4454396;32;33300;-75
2022/12/13 00:34:21;;;;;;;19.92;11.77;;;;;;;-0.34;70.68;99456.19;4458125;32;33751;-75
2022/12/13 00:36:49;;;;;;;19.73;11.55;;;;;;;-1.00;73.09;99460.56;4448422;32;35200;-74
2022/12/13 00:39:17;;;;;;;1.65;1.20;;;;;;;-0.76;71.71;99462.13;4451647;32;34056;-74
2022/12/13 00:41:46;;;;;;;22.55;12.93;;;;;;;-1.01;72.30;99453.59;4469773;32;34040;-73
2022/12/13 00:44:13;;;;;;;2.97;2.15;;;;;;;-0.78;71.46;99464.97;4455670;32;33575;-74
2022/12/13 00:46:41;;;;;;;19.73;11.93;;;;;;;-0.57;70.84;99466.94;4469515;32;34873;-75
2022/12/13 00:49:10;;;;;;;10.88;6.28;;;;;;;-0.25;69.95;99465.72;4455453;32;34520;-72
2022/12/13 00:51:38;;;;;;;18.40;11.55;;;;;;;-0.38;70.24;99472.72;4444651;32;34382;-74
2022/12/13 00:54:06;;;;;;;12.10;7.72;;;;;;;-0.50;70.55;99472.34;4424456;32;33862;-72
2022/12/13 00:56:34;;;;;;;0.80;0.68;;;;;;;-0.24;69.91;99479.88;4448883;32;33478;-74
2022/12/13 00:59:01;;;;;;;18.02;11.27;;;;;;;-0.27;69.21;99475.75;4455312;32;34495;-74
2022/12/13 01:01:31;;;;;;;6.50;3.83;;;;;;;-0.60;70.31;99487.78;4455242;32;33458;-75
2022/12/13 01:04:01;;;;;;;20.45;12.05;;;;;;;-0.61;71.51;99492.28;4439460;32;33174;-73
2022/12/13 01:06:35;;;;;;;11.50;7.00;;;;;;;-0.41;70.33;99484.59;4440637;32;34004;-72
2022/12/13 01:09:05;;;;;;;20.23;12.07;;;;;;;-0.84;71.80;99492.38;4426863;32;34152;-75
2022/12/13 01:11:33;;;;;;;18.77;11.75;;;;;;;-0.59;71.06;99490.25;4453750;32;33594;-74
2022/12/13 01:14:00;;;;;;;18.30;11.45;;;;;;;-0.98;71.74;99493.16;4468334;32;32999;-75
2022/12/13 01:16:28;;;;;;;0.60;0.60;;;;;;;-1.00;72.33;99496.00;4455338;32;34135;-75
2022/12/13 01:18:57;;;;;;;19.45;12.02;;;;;;;-0.61;71.77;99497.59;4451755;32;33946;-75
2022/12/13 01:21:24;;;;;;;1.15;1.08;;;;;;;-0.51;70.62;99492.84;4453338;32;33270;-70
2022/12/13 01:23:52;;;;;;;16.67;11.15;;;;;;;-0.32;70.33;99496.81;4453576;32;33859;-74
2022/12/13 01:26:20;;;;;;;1.65;1.08;;;;;;;-0.23;69.33;99498.34;4452435;32;34205;-74
2022/12/13 01:28:48;;;;;;;7.35;3.50;;;;;;;-0.80;70.78;99496.28;4462895;32;34766;-74
2022/12/13 01:31:17;;;;;;;18.17;11.38;;;;;;;-0.67;70.29;99498.34;4457025;32;33265;-75
2022/12/13 01:33:46;;;;;;;0.80;0.80;;;;;;;-0.84;71.19;99495.03;4453246;32;33939;-72
2022/12/13 01:36:16;;;;;;;18.58;10.77;;;;;;;-0.66;70.69;99508.81;4441132;32;34178;-73
2022/12/13 01:38:44;;;;;;;8.75;5.22;;;;;;;-0.72;70.96;99511.38;4455408;32;34725;-73
2022/12/13 01:41:19;;;;;;;1.12;1.02;;;;;;;-0.82;71.53;99509.00;4438128;32;32524;-72
2022/12/13 01:44:39;;;;;;;1.30;1.20;;;;;;;-0.83;70.91;99510.00;4426944;32;33827;-73
2022/12/13 01:47:06;;;;;;;0.60;0.60;;;;;;;-1.07;72.01;99506.53;4424290;32;34174;-72
2022/12/13 01:49:34;;;;;;;0.95;0.85;;;;;;;-1.09;72.31;99510.38;4425883;32;34726;-70
2022/12/13 01:52:04;;;;;;;20.92;11.77;;;;;;;-0.71;69.98;99513.87;4439624;32;33462;-73
2022/12/13 01:54:36;;;;;;;0.82;0.70;;;;;;;-1.10;72.35;99506.91;4438636;32;34737;-74
2022/12/13 01:57:06;;;;;;;15.20;9.30;;;;;;;-1.10;72.10;99512.22;4434746;32;34289;-75
2022/12/13 01:59:36;;;;;;;17.27;9.70;;;;;;;-0.89;71.36;99516.03;4441233;32;34793;-74
2022/12/13 02:02:05;;;;;;;0.60;0.60;;;;;;;-0.80;70.48;99514.13;4450562;32;33538;-74
2022/12/13 02:04:55;;;;;;;23.15;12.57;;;;;;;-0.97;71.89;99510.78;4465002;32;33827;-73
2022/12/13 02:07:27;;;;;;;0.70;0.70;;;;;;;-1.00;70.94;99509.31;4441270;32;34814;-74
2022/12/13 02:09:57;;;;;;;2.15;1.35;;;;;;;-1.05;71.32;99504.53;4455182;32;34036;-74
2022/12/13 02:12:27;;;;;;;0.50;0.50;;;;;;;-1.84;73.75;99503.09;4441405;32;34177;-75
2022/12/13 02:14:58;;;;;;;20.85;12.13;;;;;;;-1.45;72.74;99510.97;4455173;32;34342;-75
2022/12/13 02:18:05;;;;;;;3.12;2.28;;;;;;;-0.99;71.44;99499.47;4433779;32;34338;-75
2022/12/13 02:20:51;;;;;;;18.73;12.13;;;;;;;-1.27;72.20;99505.37;4470351;32;34285;-74
2022/12/13 02:23:44;;;;;;;6.32;3.60;;;;;;;-1.42;72.37;99501.84;4470367;32;34318;-71
2022/12/13 02:26:48;;;;;;;0.75;0.60;;;;;;;-1.17;71.38;99500.63;4438266;32;33901;-73
2022/12/13 02:29:34;;;;;;;19.83;12.37;;;;;;;-1.57;72.68;99501.78;4439485;32;34927;-75
2022/12/13 02:32:21;;;;;;;1.85;1.15;;;;;;;-1.58;72.76;99495.59;4437975;32;33714;-69
2022/12/13 02:35:01;;;;;;;3.12;2.05;;;;;;;-1.39;72.80;99502.28;4437571;32;33324;-74
2022/12/13 02:37:36;;;;;;;0.60;0.60;;;;;;;-0.97;70.85;99502.78;4413094;32;34069;-75
2022/12/13 02:40:26;;;;;;;0.77;0.77;;;;;;;-1.34;72.23;99501.75;4425524;32;33469;-73
2022/12/13 02:43:08;;;;;;;5.47;3.80;;;;;;;-0.85;70.58;99504.00;4441485;32;33809;-74
2022/12/13 02:45:46;;;;;;;6.80;4.22;;;;;;;-0.66;68.70;99503.50;4440601;32;31928;-74
2022/12/13 02:48:22;;;;;;;2.40;1.67;;;;;;;-1.28;70.54;99509.03;4427481;32;33929;-74
2022/12/13 02:50:50;;;;;;;9.50;5.82;;;;;;;-1.20;70.41;99514.31;4455867;32;34126;-73
2022/12/13 02:53:20;;;;;;;0.75;0.75;;;;;;;-0.62;69.41;99515.44;4447474;32;34675;-73
2022/12/13 02:55:47;;;;;;;6.60;3.62;;;;;;;-0.74;69.31;99502.75;4445254;32;34321;-72
2022/12/13 02:58:19;;;;;;;1.00;0.82;;;;;;;-0.86;69.65;99508.53;4470285;32;33978;-72
2022/12/13 03:01:02;;;;;;;1.55;0.93;;;;;;;-0.63;68.43;99508.47;4450847;32;34325;-74
2022/12/13 03:03:46;;;;;;;19.15;12.18;;;;;;;-0.85;69.21;99507.50;4425089;32;33033;-74
2022/12/13 03:06:29;;;;;;;0.75;0.73;;;;;;;-0.63;68.37;99511.13;4438174;32;33379;-74
2022/12/13 03:09:23;;;;;;;0.82;0.82;;;;;;;-0.35;67.09;99505.16;4439378;32;34315;-74
2022/12/13 03:15:20;;;;;;;0.52;0.52;;;;;;;-1.05;69.26;99506.37;4439263;32;33925;-74
2022/12/13 03:17:58;;;;;;;3.67;2.40;;;;;;;-1.91;71.50;99510.94;4425299;32;33454;-73
2022/12/13 03:20:27;;;;;;;1.00;0.82;;;;;;;-1.88;71.92;99510.56;4437610;32;34568;-74
2022/12/13 03:22:56;;;;;;;1.25;1.05;;;;;;;-1.63;70.74;99513.09;4425395;32;34147;-74
2022/12/13 03:25:26;;;;;;;0.88;0.88;;;;;;;-1.00;68.54;99509.31;4453345;32;34599;-74
2022/12/13 03:28:00;;;;;;;14.75;8.75;;;;;;;-0.92;67.61;99506.56;4441193;32;33370;-74
2022/12/13 03:30:30;;;;;;;23.90;12.48;;;;;;;-1.33;69.29;99514.06;4430664;32;33901;-73
2022/12/13 03:32:57;;;;;;;21.27;12.20;;;;;;;-1.69;70.72;99519.94;4425026;32;33107;-74
2022/12/13 03:35:25;;;;;;;22.33;12.70;;;;;;;-2.09;72.30;99521.81;4425391;32;34745;-73
2022/12/13 03:38:01;;;;;;;1.17;1.08;;;;;;;-1.62;71.09;99530.72;4438536;32;33519;-74
2022/12/13 03:40:29;;;;;;;20.83;12.55;;;;;;;-1.08;69.04;99526.19;4439066;32;33856;-74
2022/12/13 03:42:56;;;;;;;10.68;6.57;;;;;;;-1.39;69.09;99525.41;4439351;32;34247;-72
2022/12/13 03:45:24;;;;;;;1.02;0.93;;;;;;;-1.38;69.96;99527.91;4424969;32;34808;-72
2022/12/13 03:47:52;;;;;;;11.77;7.05;;;;;;;-1.32;70.81;99531.69;4440075;32;33300;-73
2022/12/13 03:50:19;;;;;;;21.67;13.18;;;;;;;-1.00;69.87;99521.78;4439754;32;34569;-74
2022/12/13 03:52:58;;;;;;;20.75;12.50;;;;;;;-1.12;69.48;99516.91;4453293;32;34748;-74
2022/12/13 03:55:26;;;;;;;4.65;3.05;;;;;;;-0.68;67.67;99521.50;4440745;32;33619;-74
2022/12/13 03:57:53;;;;;;;19.83;11.60;;;;;;;-1.06;68.10;99515.34;4440628;32;34092;-74
2022/12/13 04:00:21;;;;;;;22.05;11.65;;;;;;;-1.45;69.15;99518.97;4440336;32;33923;-74
2022/12/13 04:02:49;;;;;;;4.95;3.42;;;;;;;-2.02;70.98;99520.13;4439720;32;34144;-73
2022/12/13 04:05:16;;;;;;;0.70;0.70;;;;;;;-2.21;71.76;99520.53;4454526;32;34333;-74
2022/12/13 04:07:45;;;;;;;23.58;13.80;;;;;;;-1.59;70.18;99523.22;4454218;32;34048;-74
2022/12/13 04:10:15;;;;;;;1.65;1.45;;;;;;;-1.99;70.68;99538.38;4439338;32;34074;-72
2022/12/13 04:15:39;;;;;;;6.93;4.25;;;;;;;-1.06;67.45;99540.16;4427148;32;33851;-74
2022/12/13 04:18:06;;;;;;;21.80;12.13;;;;;;;-1.59;68.59;99541.84;4425312;32;34168;-74
2022/12/13 04:20:34;;;;;;;16.60;9.82;;;;;;;-1.69;69.51;99543.87;4440339;32;33777;-73
2022/12/13 04:23:03;;;;;;;1.33;0.73;;;;;;;-1.21;70.28;99541.91;4454373;32;34905;-77
2022/12/13 04:25:38;;;;;;;0.57;0.57;;;;;;;-1.21;70.14;99536.59;4440507;32;33809;-76
2022/12/13 04:28:05;;;;;;;0.50;0.50;;;;;;;-1.31;69.98;99536.84;4440607;32;33486;-75
2022/12/13 04:30:33;;;;;;;20.80;12.02;;;;;;;-1.09;69.04;99531.69;4435218;32;33142;-71
2022/12/13 04:33:01;;;;;;;6.05;3.92;;;;;;;-1.03;67.72;99530.97;4429946;32;33300;-74
2022/12/13 04:35:29;;;;;;;6.95;4.57;;;;;;;-0.96;66.39;99525.75;4425019;32;34177;-71
2022/12/13 04:37:56;;;;;;;1.55;1.45;;;;;;;-1.01;66.18;99522.81;4438161;32;33613;-71
2022/12/13 04:40:24;;;;;;;24.65;14.82;;;;;;;-1.66;67.87;99525.75;4437343;32;33651;-72
2022/12/13 04:42:53;;;;;;;0.73;0.73;;;;;;;-1.99;69.78;99526.91;4457541;32;34258;-73
2022/12/13 04:45:21;;;;;;;1.85;1.75;;;;;;;-2.30;70.23;99531.19;4453440;32;33938;-73
2022/12/13 04:47:49;;;;;;;6.75;4.43;;;;;;;-1.87;69.49;99533.50;4455375;32;33517;-73
2022/12/13 04:50:17;;;;;;;0.50;0.50;;;;;;;-1.90;69.46;99526.72;4469670;32;33869;-73
2022/12/13 04:52:44;;;;;;;25.50;14.48;;;;;;;-1.47;69.38;99534.28;4456001;32;34827;-73
2022/12/13 04:55:12;;;;;;;3.35;2.35;;;;;;;-1.39;69.93;99536.87;4431041;32;33961;-74
2022/12/13 04:57:40;;;;;;;2.37;1.55;;;;;;;-1.45;69.89;99538.44;4448481;32;34314;-72
2022/12/13 05:00:10;;;;;;;1.02;1.02;;;;;;;-1.35;68.78;99532.88;4452661;32;34463;-71
2022/12/13 05:02:39;;;;;;;0.90;0.62;;;;;;;-1.50;68.00;99532.78;4439780;32;34381;-71
2022/12/13 05:05:08;;;;;;;1.35;1.25;;;;;;;-1.52;70.01;99529.47;4443905;32;34064;-73
2022/12/13 05:07:36;;;;;;;0.80;0.77;;;;;;;-1.71;68.81;99529.94;4455324;32;33561;-72
2022/12/13 05:10:10;;;;;;;1.33;1.08;;;;;;;-1.59;68.44;99531.19;4456223;32;33988;-73
2022/12/13 05:12:37;;;;;;;18.50;10.90;;;;;;;-1.40;67.17;99535.25;4449879;32;34198;-73
2022/12/13 05:15:05;;;;;;;5.45;1.55;;;;;;;-1.51;68.65;99535.63;4438055;32;34661;-73
2022/12/13 05:17:33;;;;;;;0.65;0.65;;;;;;;-1.65;69.24;99535.37;4424405;32;34221;-73
2022/12/13 05:20:01;;;;;;;7.97;4.97;;;;;;;-1.62;69.09;99533.38;4411160;32;33289;-73
2022/12/13 05:22:28;;;;;;;18.92;11.25;;;;;;;-2.05;71.46;99541.75;4436776;32;33882;-73
2022/12/13 05:24:56;;;;;;;1.02;0.93;;;;;;;-2.57;71.75;99543.06;4451356;32;34349;-72
2022/12/13 05:27:23;;;;;;;23.52;14.50;;;;;;;-2.82;72.25;99544.91;4469263;32;33590;-71
2022/12/13 05:29:54;;;;;;;2.55;1.73;;;;;;;-2.37;70.53;99540.84;4457641;32;33983;-72
2022/12/13 05:32:33;;;;;;;0.50;0.50;;;;;;;-2.56;71.60;99535.91;4440352;32;34186;-72
2022/12/13 05:35:12;;;;;;;0.50;0.50;;;;;;;-2.39;70.92;99536.69;4440515;32;33392;-71
2022/12/13 05:37:48;;;;;;;23.35;13.27;;;;;;;-2.64;71.96;99541.22;4440405;32;34375;-73
2022/12/13 05:40:26;;;;;;;0.73;0.73;;;;;;;-2.65;71.62;99543.06;4453271;32;33863;-73
2022/12/13 05:42:54;;;;;;;0.55;0.55;;;;;;;-1.94;70.03;99551.16;4439575;32;34015;-71
2022/12/13 05:45:29;;;;;;;8.03;4.63;;;;;;;-1.72;68.62;99539.75;4432219;32;33193;-71
2022/12/13 05:47:57;;;;;;;1.55;1.45;;;;;;;-1.49;68.64;99539.78;4467308;32;33565;-73
2022/12/13 05:50:24;;;;;;;1.15;1.05;;;;;;;-1.54;68.04;99534.16;4441591;32;33083;-73
2022/12/13 05:52:52;;;;;;;6.93;4.43;;;;;;;-2.01;68.77;99539.53;4454634;32;33974;-73
2022/12/13 05:55:19;;;;;;;1.25;0.82;;;;;;;-2.67;71.16;99538.94;4453556;32;33625;-72
2022/12/13 05:57:47;;;;;;;2.37;1.62;;;;;;;-2.94;72.41;99540.91;4453138;32;33234;-74
2022/12/13 06:00:17;;;;;;;2.67;1.50;;;;;;;-2.13;70.22;99539.94;4452525;32;33917;-72
2022/12/13 06:02:58;;;;;;;0.90;0.90;;;;;;;-2.13;70.04;99544.44;4451427;32;33677;-73
2022/12/13 06:05:28;;;;;;;0.60;0.60;;;;;;;-1.94;69.28;99552.00;4454118;32;33892;-72
2022/12/13 06:07:56;;;;;;;24.30;14.73;;;;;;;-1.81;70.44;99553.25;4453044;32;33857;-73
2022/12/13 06:10:27;;;;;;;12.25;6.65;;;;;;;-2.03;70.82;99554.84;4435999;32;33262;-68
2022/12/13 06:13:04;;;;;;;1.52;1.45;;;;;;;-2.31;71.99;99545.47;4450265;32;34206;-74
2022/12/13 06:15:53;;;;;;;0.93;0.93;;;;;;;-1.97;71.58;99548.84;4455095;32;34933;-75
2022/12/13 06:18:33;;;;;;;1.35;0.98;;;;;;;-1.49;67.72;99553.09;4442189;32;32780;-75
2022/12/13 06:21:04;;;;;;;1.33;0.98;;;;;;;-1.60;67.89;99552.66;4455032;32;34610;-75
2022/12/13 06:23:33;;;;;;;0.90;0.90;;;;;;;-1.79;68.65;99556.56;4453763;32;35069;-74
2022/12/13 06:26:05;;;;;;;1.40;1.30;;;;;;;-2.20;70.38;99552.25;4453707;32;33914;-76
2022/12/13 06:28:33;;;;;;;3.87;3.25;;;;;;;-2.44;72.27;99555.81;4455228;32;34128;-75
2022/12/13 06:31:01;;;;;;;2.40;1.87;;;;;;;-2.15;72.45;99559.72;4468911;32;34004;-78
2022/12/13 06:33:34;;;;;;;1.30;1.20;;;;;;;-1.74;69.93;99563.03;4455279;32;34056;-77
2022/12/13 06:36:03;;;;;;;1.35;0.95;;;;;;;-1.78;69.02;99571.53;4436673;32;33366;-77
2022/12/13 06:38:30;;;;;;;1.40;1.30;;;;;;;-1.57;67.10;99579.75;4428218;32;33861;-75
2022/12/13 06:41:15;;;;;;;4.32;3.42;;;;;;;-1.75;67.44;99574.69;4452948;32;34652;-76
2022/12/13 06:43:44;;;;;;;13.35;7.87;;;;;;;-1.78;67.74;99572.34;4436784;32;33976;-78
2022/12/13 06:46:12;;;;;;;1.95;1.85;;;;;;;-1.66;66.67;99576.28;4426060;32;33281;-74
2022/12/13 06:48:40;;;;;;;31.52;12.32;;;;;;;-1.96;67.27;99588.56;4439437;32;33265;-77
2022/12/13 06:51:08;;;;;;;1.73;1.62;;;;;;;-1.91;66.92;99588.03;4436735;32;33967;-72
2022/12/13 06:53:37;;;;;;;7.72;5.18;;;;;;;-2.04;67.31;99588.56;4453359;32;34092;-74
2022/12/13 06:56:10;;;;;;;4.00;3.70;;;;;;;-2.03;67.92;99587.59;4438980;32;33773;-74
2022/12/13 06:58:38;;;;;;;5.00;3.35;;;;;;;-2.00;68.00;99591.72;4440007;32;33013;-73
2022/12/13 07:01:11;;;;;;;3.17;2.95;;;;;;;-2.22;69.75;99595.97;4453259;32;33537;-73
2022/12/13 07:03:55;;;;;;;33.20;16.70;;;;;;;-2.09;70.74;99606.88;4440250;32;34125;-73
2022/12/13 07:06:23;;;;;;;2.42;2.25;;;;;;;-1.82;70.00;99610.94;4452918;32;34164;-75
2022/12/13 07:08:56;;;;;;;27.23;16.17;;;;;;;-1.86;69.88;99612.28;4453338;32;33649;-73
2022/12/13 07:11:28;;;;;;;6.25;3.72;;;;;;;-2.09;71.67;99606.88;4452293;32;34127;-72
2022/12/13 07:13:56;;;;;;;2.90;2.75;;;;;;;-1.80;71.65;99611.59;4444363;32;33785;-72
2022/12/13 07:16:25;;;;;;;8.95;3.00;;;;;;;-1.72;71.22;99616.88;4426223;32;34028;-73
2022/12/13 07:18:56;;;;;;;2.58;1.70;;;;;;;-1.71;70.41;99610.53;4452263;32;32948;-74
2022/12/13 07:21:28;;;;;;;1.87;1.77;;;;;;;-1.79;70.81;99609.75;4452053;32;34575;-75
2022/12/13 07:23:56;;;;;;;0.77;0.77;;;;;;;-1.75;71.07;99611.91;4439484;32;34780;-74
2022/12/13 07:26:24;;;;;;;5.87;4.12;;;;;;;-1.45;69.89;99612.09;4428014;32;33134;-72
2022/12/13 07:28:51;;;;;;;25.85;14.73;;;;;;;-1.72;70.85;99616.06;4440414;32;33444;-73
2022/12/13 07:31:23;;;;;;;1.60;0.93;;;;;;;-1.17;68.83;99614.28;4453316;32;33141;-75
2022/12/13 07:33:51;;;;;;;5.68;3.35;;;;;;;-1.49;69.83;99616.94;4442843;32;35063;-75
2022/12/13 07:36:21;;;;;;;14.00;8.15;;;;;;;-1.22;68.83;99612.13;4435427;32;33845;-71
2022/12/13 07:38:53;;;;;;;36.85;18.70;;;;;;;-1.37;68.92;99616.56;4468168;32;34588;-73
2022/12/13 07:41:22;;;;;;;9.45;4.65;;;;;;;-1.47;68.83;99620.28;4469614;32;33878;-72
2022/12/13 07:43:51;;;;;;;161.00;62.17;;;;;;;-1.37;69.10;99624.53;4469825;32;34862;-73
2022/12/13 07:46:22;;;;;;;18.83;7.15;;;;;;;-2.19;73.12;99625.66;4470054;32;33983;-73
2022/12/13 07:49:01;;;;;;;66.90;27.67;;;;;;;-1.23;70.99;99629.13;4457034;32;34329;-73
2022/12/13 07:51:29;;;;;;;7.87;5.25;;;;;;;-1.22;71.63;99629.94;4456192;32;33915;-74
2022/12/13 07:53:56;;;;;;;8.00;6.40;;;;;;;-1.04;70.01;99622.50;4468083;32;33862;-75
2022/12/13 07:56:24;;;;;;;3.83;3.50;;;;;;;-0.57;69.00;99620.66;4468799;32;34232;-71
2022/12/13 07:58:51;;;;;;;5.25;4.70;;;;;;;-0.36;69.20;99623.47;4468023;32;33629;-73
2022/12/13 08:01:19;;;;;;;1.40;1.30;;;;;;;0.05;67.81;99627.56;4465002;32;33884;-72
2022/12/13 08:03:47;;;;;;;31.33;16.92;;;;;;;-0.03;67.70;99623.94;4468680;32;35081;-72
2022/12/13 08:06:15;;;;;;;27.77;15.40;;;;;;;0.11;67.35;99625.00;4467110;32;34852;-72
2022/12/13 08:08:42;;;;;;;27.13;14.90;;;;;;;-0.98;68.11;99626.28;4469647;32;34431;-72
2022/12/13 08:11:12;;;;;;;34.08;19.00;;;;;;;-0.27;67.08;99629.53;4469677;32;34025;-72
2022/12/13 08:13:40;;;;;;;43.20;22.30;;;;;;;0.37;64.63;99637.03;4467454;32;34220;-75
2022/12/13 08:16:09;;;;;;;3.37;3.08;;;;;;;0.39;63.98;99627.81;4454861;32;33958;-74
2022/12/13 08:18:58;;;;;;;10.43;6.32;;;;;;;0.79;63.55;99627.47;4457991;32;33484;-72
2022/12/13 08:21:38;;;;;;;35.13;19.48;;;;;;;0.62;62.02;99625.00;4469294;32;33817;-73
2022/12/13 08:24:26;;;;;;;20.00;12.68;;;;;;;1.25;63.17;99631.62;4457514;32;35007;-70
2022/12/13 08:26:56;;;;;;;19.48;11.35;;;;;;;1.83;62.32;99626.97;4468984;32;33745;-69
2022/12/13 08:29:23;;;;;;;19.75;11.55;;;;;;;1.33;60.53;99628.84;4455845;32;33522;-75
2022/12/13 08:32:04;;;;;;;19.62;11.38;;;;;;;1.62;59.67;99633.19;4465666;32;33939;-73
2022/12/13 08:34:31;;;;;;;19.65;13.38;;;;;;;2.29;58.69;99633.66;4455342;32;35057;-70
2022/12/13 08:36:59;;;;;;;2.22;1.98;;;;;;;2.93;56.95;99632.47;4466804;32;33800;-70
2022/12/13 08:39:34;;;;;;;42.30;25.05;;;;;;;3.61;56.11;99630.53;4455055;32;33266;-71
2022/12/13 08:42:12;;;;;;;37.35;22.67;;;;;;;4.15;53.75;99633.97;4469282;32;33687;-69
2022/12/13 08:44:48;;;;;;;39.25;22.70;;;;;;;4.60;51.95;99639.44;4469365;32;33896;-73
2022/12/13 08:47:17;;;;;;;27.02;15.82;;;;;;;4.84;51.63;99637.06;4455377;32;34805;-72
2022/12/13 08:49:51;;;;;;;24.23;14.25;;;;;;;5.21;50.00;99638.09;4441488;32;34567;-76
2022/12/13 08:52:21;;;;;;;21.67;14.25;;;;;;;4.77;49.06;99630.88;4426554;32;33974;-72
2022/12/13 08:54:48;;;;;;;13.15;9.02;;;;;;;4.16;50.52;99624.06;4450880;32;34056;-71
2022/12/13 08:57:16;;;;;;;15.98;10.30;;;;;;;3.77;51.41;99623.91;4455150;32;33839;-72
2022/12/13 08:59:44;;;;;;;15.30;10.10;;;;;;;4.69;50.02;99629.28;4455193;32;33603;-75
2022/12/13 09:02:12;;;;;;;17.40;11.27;;;;;;;5.09;49.67;99634.44;4469111;32;33956;-73
2022/12/13 09:04:40;;;;;;;17.65;11.10;;;;;;;2.85;52.98;99626.28;4455162;32;34251;-71
2022/12/13 09:07:08;;;;;;;17.87;11.20;;;;;;;3.04;54.12;99623.84;4465595;32;33923;-71
2022/12/13 09:09:36;;;;;;;19.98;12.18;;;;;;;2.69;53.35;99623.12;4466186;32;34188;-73
2022/12/13 09:12:04;;;;;;;20.88;11.60;;;;;;;3.93;53.04;99619.97;4452468;32;33928;-69
2022/12/13 09:14:37;;;;;;;19.45;11.55;;;;;;;5.17;47.66;99626.13;4468298;32;35149;-70
2022/12/13 09:17:14;;;;;;;19.23;12.02;;;;;;;5.54;47.15;99620.91;4467558;32;34602;-74
2022/12/13 09:19:52;;;;;;;17.27;10.00;;;;;;;5.60;47.26;99622.72;4467089;32;33602;-70
2022/12/13 09:22:25;;;;;;;15.43;9.48;;;;;;;5.64;46.67;99623.94;4467972;32;34907;-76
2022/12/13 09:25:01;;;;;;;15.00;9.23;;;;;;;5.06;47.85;99624.12;4467983;32;34261;-72
2022/12/13 09:27:30;;;;;;;15.23;9.45;;;;;;;5.31;46.55;99621.47;4467279;32;33612;-75
2022/12/13 09:30:10;;;;;;;14.52;8.93;;;;;;;5.37;46.87;99627.84;4451177;32;34241;-72
2022/12/13 09:32:39;;;;;;;16.05;9.25;;;;;;;5.39;46.80;99625.78;4450021;32;34612;-74
2022/12/13 09:35:07;;;;;;;15.88;8.90;;;;;;;5.34;46.65;99626.44;4452513;32;35118;-74
2022/12/13 09:37:34;;;;;;;20.30;10.98;;;;;;;5.07;47.79;99625.75;4444895;32;34026;-73
2022/12/13 09:40:15;;;;;;;13.07;8.77;;;;;;;5.40;47.50;99619.34;4452725;32;34556;-73
2022/12/13 09:43:02;;;;;;;14.63;8.57;;;;;;;5.67;46.89;99617.28;4429654;32;34774;-74
2022/12/13 09:45:43;;;;;;;14.57;8.40;;;;;;;5.37;47.06;99615.22;4439507;32;34318;-71
2022/12/13 09:48:16;;;;;;;13.32;8.25;;;;;;;5.16;47.80;99612.87;4445240;32;34794;-73
2022/12/13 09:50:50;;;;;;;13.60;7.95;;;;;;;5.53;46.09;99605.81;4438942;32;34447;-73
2022/12/13 09:53:38;;;;;;;14.55;9.82;;;;;;;5.59;45.47;99607.59;4430689;32;33237;-73
2022/12/13 09:56:10;;;;;;;11.88;7.57;;;;;;;5.17;46.65;99606.47;4440394;32;34142;-74
2022/12/13 09:58:37;;;;;;;11.93;6.95;;;;;;;4.48;48.36;99606.19;4440632;32;34581;-71
2022/12/13 10:01:05;;;;;;;12.45;7.18;;;;;;;5.18;47.00;99605.41;4444479;32;33446;-74
2022/12/13 10:03:33;;;;;;;10.52;6.82;;;;;;;5.21;47.36;99596.94;4454270;32;33561;-79
2022/12/13 10:06:15;;;;;;;11.30;7.32;;;;;;;5.79;45.70;99590.44;4454214;32;34066;-72
2022/12/13 10:08:52;;;;;;;12.60;7.82;;;;;;;5.53;46.16;99595.84;4452040;32;34063;-74
2022/12/13 10:11:26;;;;;;;11.05;7.47;;;;;;;5.09;47.55;99596.78;4452262;32;33324;-71
2022/12/13 10:14:01;;;;;;;11.57;7.30;;;;;;;5.59;45.81;99596.00;4449440;32;34897;-71
2022/12/13 10:16:37;;;;;;;10.32;7.07;;;;;;;5.82;44.23;99585.44;4464792;32;34210;-72
2022/12/13 10:19:34;;;;;;;10.65;6.78;;;;;;;5.57;45.53;99590.84;4453873;32;33824;-71
2022/12/13 10:22:04;;;;;;;8.73;6.15;;;;;;;3.45;48.23;99585.31;4447664;32;34306;-74
2022/12/13 10:24:54;;;;;;;10.55;6.47;;;;;;;4.17;48.74;99590.78;4453217;32;34776;-71
2022/12/13 10:27:24;;;;;;;9.75;6.55;;;;;;;4.67;47.34;99589.16;4453296;32;34133;-71
2022/12/13 10:29:56;;;;;;;10.52;6.40;;;;;;;4.97;46.19;99587.75;4453015;32;34307;-76
2022/12/13 10:32:23;;;;;;;7.47;5.20;;;;;;;4.95;46.51;99582.63;4456620;32;34051;-78
2022/12/13 10:34:54;;;;;;;7.57;5.00;;;;;;;5.30;43.99;99587.56;4468811;32;33936;-71
2022/12/13 10:37:21;;;;;;;9.55;5.93;;;;;;;3.77;46.52;99580.97;4447631;32;33952;-71
2022/12/13 10:39:49;;;;;;;9.13;5.45;;;;;;;3.80;49.11;99579.72;4462346;32;34575;-72
2022/12/13 10:42:19;;;;;;;10.48;6.22;;;;;;;3.42;48.69;99585.75;4451141;32;33441;-73
2022/12/13 10:45:15;;;;;;;9.48;5.80;;;;;;;3.88;49.30;99579.50;4447488;32;34899;-76
2022/12/13 10:47:50;;;;;;;11.60;6.80;;;;;;;4.08;49.04;99577.62;4455021;32;34245;-77
2022/12/13 10:50:26;;;;;;;8.15;5.97;;;;;;;3.29;49.70;99573.16;4455502;32;34713;-73
2022/12/13 10:52:55;;;;;;;9.75;6.15;;;;;;;3.98;49.28;99579.09;4454935;32;34082;-74
2022/12/13 10:55:31;;;;;;;13.30;7.20;;;;;;;3.35;50.21;99574.16;4455658;32;34018;-74
2022/12/13 10:58:06;;;;;;;10.32;6.60;;;;;;;2.56;50.43;99573.84;4446001;32;33720;-73
2022/12/13 11:00:45;;;;;;;13.07;7.70;;;;;;;3.45;50.02;99572.72;4441230;32;34560;-76
2022/12/13 11:03:29;;;;;;;13.18;8.10;;;;;;;3.26;50.05;99565.50;4450711;32;33524;-71
2022/12/13 11:06:12;;;;;;;14.45;7.43;;;;;;;3.68;50.08;99563.44;4455363;32;32694;-71
2022/12/13 11:08:40;;;;;;;8.10;5.20;;;;;;;3.62;50.40;99558.91;4469808;32;34353;-77
2022/12/13 11:11:09;;;;;;;0.70;0.70;;;;;;;4.01;48.48;99560.69;4450628;32;34582;-80
2022/12/13 11:13:49;;;;;;;9.43;6.05;;;;;;;4.09;48.49;99565.00;4452901;32;34274;-74
2022/12/13 11:16:27;;;;;;;10.80;6.57;;;;;;;3.98;48.07;99552.25;4453888;32;33744;-69
2022/12/13 11:18:57;;;;;;;9.80;5.90;;;;;;;3.34;49.21;99541.19;4449453;32;34146;-83
2022/12/13 11:21:27;;;;;;;9.15;5.82;;;;;;;3.95;48.06;99550.78;4439869;32;33155;-77
2022/12/13 11:23:57;;;;;;;9.63;5.70;;;;;;;4.65;46.94;99550.13;4422034;32;33311;-81
2022/12/13 11:26:32;;;;;;;9.07;5.75;;;;;;;4.96;46.88;99541.22;4455813;32;33584;-74
2022/12/13 11:32:32;;;;;;;9.82;5.80;;;;;;;3.81;46.53;99535.75;4449857;32;34051;-75
2022/12/13 11:35:12;;;;;;;8.90;4.85;;;;;;;4.04;48.27;99540.62;4453808;32;33520;-75
2022/12/13 11:38:01;;;;;;;7.32;4.65;;;;;;;3.52;47.42;99540.56;4453826;32;33014;-75
2022/12/13 11:40:31;;;;;;;7.90;4.62;;;;;;;5.08;45.24;99536.00;4454413;32;34475;-74
2022/12/13 11:43:21;;;;;;;7.75;4.32;;;;;;;5.83;42.21;99529.72;4442030;32;34780;-77
2022/12/13 11:45:53;;;;;;;6.57;4.35;;;;;;;5.95;42.19;99531.50;4467360;32;33256;-76
2022/12/13 11:48:25;;;;;;;8.40;5.03;;;;;;;6.29;42.21;99533.81;4453377;32;33971;-76
2022/12/13 11:50:55;;;;;;;8.18;4.82;;;;;;;4.54;44.54;99540.06;4453504;32;33881;-76
2022/12/13 11:53:51;;;;;;;7.82;4.97;;;;;;;5.39;44.25;99540.50;4440723;32;33801;-76
2022/12/13 11:56:37;;;;;;;8.93;4.78;;;;;;;5.55;43.88;99537.25;4468420;32;33192;-75
2022/12/13 11:59:32;;;;;;;7.57;4.82;;;;;;;5.54;43.94;99530.22;4454440;32;33897;-75
2022/12/13 12:02:15;;;;;;;7.22;4.78;;;;;;;6.10;43.64;99536.50;4468447;32;33921;-76
2022/12/13 12:04:54;;;;;;;8.15;5.03;;;;;;;6.55;41.63;99532.66;4452772;32;33788;-75